Aegean Pride — ELXK8 — position and weather

sailwx.info

Track history (hours):
 
Tides and Currents Weather Stations Pressure Air Temp Water Temp Dewpoint Dewpoint Depression Visibility Wind Speed Wind Dir Waves Ship Positions

Aegean Pride

Last reported at 2017-Jan-17 14:31 UTC. Time now 2017-Jan-21 02:18 UTC.
Position N 01°14' E 103°59'.

Length 244 m; draft 9.1 m.

Type: Ship (hazmat cat A). MMSI: 636011186.

Date/timePositionNaut miles runAvg speedWind from/ knotsBaromVisibWave heightAir tempDewpointWater temp
2017-Jan-17 14:31N 01°14' E 103°59'19 4.7
2017-Jan-17 10:32N 01°10' E 103°41'6 0.5
2017-Jan-16 20:32N 01°16' E 103°44'  
2017-Jan-12 17:06N 01°17' E 103°44'0 0.3
2017-Jan-12 16:33N 01°17' E 103°44'3 2.7
2017-Jan-12 15:33N 01°15' E 103°45'5 1.2
2017-Jan-12 11:04N 01°11' E 103°41'0 0.0
2017-Jan-12 08:25N 01°11' E 103°41'6 0.8
2017-Jan-12 01:26N 01°17' E 103°42'0 0.0
2017-Jan-12 00:04N 01°17' E 103°42'0 0.0
2017-Jan-11 18:26N 01°17' E 103°42'0 0.0
2017-Jan-11 17:06N 01°17' E 103°42'0 0.0
2017-Jan-11 16:07N 01°17' E 103°42'0 0.0
2017-Jan-11 15:31N 01°17' E 103°42'0 0.0
2017-Jan-11 01:13N 01°17' E 103°42'0 0.0
2017-Jan-11 00:33N 01°17' E 103°42'0 0.0
2017-Jan-10 20:28N 01°17' E 103°42'0 0.0
2017-Jan-10 19:26N 01°17' E 103°42'0 0.0
2017-Jan-10 17:10N 01°17' E 103°42'0 0.0
2017-Jan-10 16:31N 01°17' E 103°42'0 0.0
2017-Jan-10 13:21N 01°17' E 103°42'0 0.0
2017-Jan-10 12:04N 01°17' E 103°42'0 0.0
2017-Jan-10 11:33N 01°17' E 103°42'0 0.0
2017-Jan-10 09:12N 01°17' E 103°42'0 0.0
2017-Jan-10 07:22N 01°17' E 103°42'0 0.1
2017-Jan-10 06:33N 01°17' E 103°42'0 0.0
2017-Jan-10 05:32N 01°17' E 103°42'0 0.0
2017-Jan-10 04:33N 01°17' E 103°42'0 0.4
2017-Jan-10 03:32N 01°17' E 103°42'4 3.7
2017-Jan-10 02:25N 01°14' E 103°40'1 0.5
2017-Jan-09 23:13N 01°12' E 103°41'  
Track history (hours):
 
Tides and Currents Weather Stations Pressure Air Temp Water Temp Dewpoint Dewpoint Depression Visibility Wind Speed Wind Dir Waves Ship Positions

Aegean Pride

Last reported at 2017-Jan-17 14:31 UTC. Time now 2017-Jan-21 02:18 UTC.
Position N 01°14' E 103°59'.

Length 244 m; draft 9.1 m.

Type: Ship (hazmat cat A). MMSI: 636011186.

Date/timePositionNaut miles runAvg speedWind from/ knotsBaromVisibWave heightAir tempDewpointWater temp
2017-Jan-17 14:31N 01°14' E 103°59'19 4.7
2017-Jan-17 10:32N 01°10' E 103°41'6 0.5
2017-Jan-16 20:32N 01°16' E 103°44'  
2017-Jan-12 17:06N 01°17' E 103°44'0 0.3
2017-Jan-12 16:33N 01°17' E 103°44'3 2.7
2017-Jan-12 15:33N 01°15' E 103°45'5 1.2
2017-Jan-12 11:04N 01°11' E 103°41'0 0.0
2017-Jan-12 08:25N 01°11' E 103°41'6 0.8
2017-Jan-12 01:26N 01°17' E 103°42'0 0.0
2017-Jan-12 00:04N 01°17' E 103°42'0 0.0
2017-Jan-11 18:26N 01°17' E 103°42'0 0.0
2017-Jan-11 17:06N 01°17' E 103°42'0 0.0
2017-Jan-11 16:07N 01°17' E 103°42'0 0.0
2017-Jan-11 15:31N 01°17' E 103°42'0 0.0
2017-Jan-11 01:13N 01°17' E 103°42'0 0.0
2017-Jan-11 00:33N 01°17' E 103°42'0 0.0
2017-Jan-10 20:28N 01°17' E 103°42'0 0.0
2017-Jan-10 19:26N 01°17' E 103°42'0 0.0
2017-Jan-10 17:10N 01°17' E 103°42'0 0.0
2017-Jan-10 16:31N 01°17' E 103°42'0 0.0
2017-Jan-10 13:21N 01°17' E 103°42'0 0.0
2017-Jan-10 12:04N 01°17' E 103°42'0 0.0
2017-Jan-10 11:33N 01°17' E 103°42'0 0.0
2017-Jan-10 09:12N 01°17' E 103°42'0 0.0
2017-Jan-10 07:22N 01°17' E 103°42'0 0.1
2017-Jan-10 06:33N 01°17' E 103°42'0 0.0
2017-Jan-10 05:32N 01°17' E 103°42'0 0.0
2017-Jan-10 04:33N 01°17' E 103°42'0 0.4
2017-Jan-10 03:32N 01°17' E 103°42'4 3.7
2017-Jan-10 02:25N 01°14' E 103°40'1 0.5
2017-Jan-09 23:13N 01°12' E 103°41'  

Dump ship's entire track history